Time,TemperatureF,DewpointF,PressureIn,WindDirection,WindDirectionDegrees,WindSpeedMPH,WindSpeedGustMPH,Humidity,HourlyPrecipIn,Conditions,Clouds,dailyrainin,SoftwareType,DateUTC
2013-02-19 00:00:00,45.7,42.9,30.26,NNE,32,0.0,0.0,90,0.00,,,0.00,Wunderground v.1.15,2013-02-19 05:00:00,
2013-02-19 00:02:00,45.5,42.7,30.26,North,351,0.0,1.0,90,0.00,,,0.00,Wunderground v.1.15,2013-02-19 05:02:00,
2013-02-19 00:04:00,45.3,42.5,30.26,WNW,300,0.0,1.0,90,0.00,,,0.00,Wunderground v.1.15,2013-02-19 05:04:00,
2013-02-19 00:10:00,45.2,42.4,30.25,West,268,0.0,0.0,90,0.00,,,0.00,Wunderground v.1.15,2013-02-19 05:10:00,
2013-02-19 00:14:00,45.0,42.2,30.25,NW,323,0.0,0.0,90,0.00,,,0.00,Wunderground v.1.15,2013-02-19 05:14:00,
2013-02-19 00:20:00,44.3,41.6,30.25,North,350,0.0,0.0,90,0.00,,,0.00,Wunderground v.1.15,2013-02-19 05:20:00,
2013-02-19 00:26:00,44.1,41.4,30.25,NNW,348,0.0,0.0,90,0.00,,,0.00,Wunderground v.1.15,2013-02-19 05:26:00,
2013-02-19 00:32:00,43.7,41.0,30.25,NNW,346,0.0,0.0,90,0.00,,,0.00,Wunderground v.1.15,2013-02-19 05:32:00,
2013-02-19 00:38:00,43.1,40.4,30.25,WSW,240,0.0,0.0,90,0.00,,,0.00,Wunderground v.1.15,2013-02-19 05:38:00,
2013-02-19 00:44:00,42.8,40.4,30.25,WSW,252,0.0,0.0,91,0.00,,,0.00,Wunderground v.1.15,2013-02-19 05:44:00,
2013-02-19 00:50:00,43.1,41.2,30.25,West,265,0.0,0.0,93,0.00,,,0.00,Wunderground v.1.15,2013-02-19 05:50:00,
2013-02-19 00:56:00,43.4,41.5,30.25,West,268,0.0,0.0,93,0.00,,,0.00,Wunderground v.1.15,2013-02-19 05:56:00,
2013-02-19 01:02:00,43.2,41.0,30.25,WSW,248,0.0,1.0,92,0.00,,,0.00,Wunderground v.1.15,2013-02-19 06:02:00,
2013-02-19 01:08:00,42.8,40.6,30.25,SW,232,0.0,1.0,92,0.00,,,0.00,Wunderground v.1.15,2013-02-19 06:08:00,
2013-02-19 01:14:00,42.5,40.3,30.24,SW,233,0.0,0.0,92,0.00,,,0.00,Wunderground v.1.15,2013-02-19 06:14:00,
2013-02-19 01:20:00,42.2,40.0,30.24,SW,233,0.0,0.0,92,0.00,,,0.00,Wunderground v.1.15,2013-02-19 06:20:00,
2013-02-19 01:26:00,42.9,41.0,30.24,SSE,161,0.0,0.0,93,0.00,,,0.00,Wunderground v.1.15,2013-02-19 06:26:00,
2013-02-19 01:32:00,42.7,40.8,30.24,SW,225,0.0,0.0,93,0.00,,,0.00,Wunderground v.1.15,2013-02-19 06:32:00,
2013-02-19 01:38:00,43.3,41.7,30.23,SSW,199,0.0,1.0,94,0.00,,,0.00,Wunderground v.1.15,2013-02-19 06:38:00,
2013-02-19 01:44:00,43.9,42.3,30.23,SSW,206,0.0,1.0,94,0.00,,,0.00,Wunderground v.1.15,2013-02-19 06:44:00,
2013-02-19 01:50:00,44.5,42.9,30.23,SW,217,0.0,0.0,94,0.00,,,0.00,Wunderground v.1.15,2013-02-19 06:50:00,
2013-02-19 01:56:00,45.3,44.0,30.22,SSW,194,0.0,1.0,95,0.00,,,0.00,Wunderground v.1.15,2013-02-19 06:56:00,
2013-02-19 02:02:00,46.1,44.7,30.22,SSW,210,1.0,1.0,95,0.00,,,0.00,Wunderground v.1.15,2013-02-19 07:02:00,
2013-02-19 02:08:00,46.5,45.1,30.21,SSW,198,1.0,1.0,95,0.00,,,0.00,Wunderground v.1.15,2013-02-19 07:08:00,
2013-02-19 02:14:00,47.5,46.1,30.21,SSW,194,1.0,3.0,95,0.00,,,0.00,Wunderground v.1.15,2013-02-19 07:14:00,
2013-02-19 02:20:00,48.2,46.6,30.20,SSE,164,2.0,3.0,94,0.00,,,0.00,Wunderground v.1.15,2013-02-19 07:20:00,
2013-02-19 02:26:00,49.2,47.3,30.20,SSE,161,3.0,4.0,93,0.00,,,0.00,Wunderground v.1.15,2013-02-19 07:26:00,
2013-02-19 02:32:00,50.2,47.7,30.20,SSE,160,3.0,3.0,91,0.00,,,0.00,Wunderground v.1.15,2013-02-19 07:32:00,
2013-02-19 02:38:00,50.9,47.8,30.19,South,170,3.0,4.0,89,0.00,,,0.00,Wunderground v.1.15,2013-02-19 07:38:00,
2013-02-19 02:44:00,51.6,48.2,30.18,SSE,166,4.0,4.0,88,0.00,,,0.00,Wunderground v.1.15,2013-02-19 07:44:00,
2013-02-19 02:50:00,52.3,48.2,30.19,South,176,4.0,4.0,86,0.00,,,0.00,Wunderground v.1.15,2013-02-19 07:50:00,
2013-02-19 02:56:00,52.6,48.2,30.18,South,179,3.0,4.0,85,0.00,,,0.00,Wunderground v.1.15,2013-02-19 07:56:00,
2013-02-19 03:02:00,52.9,48.2,30.18,South,175,4.0,4.0,84,0.00,,,0.00,Wunderground v.1.15,2013-02-19 08:02:00,
2013-02-19 03:08:00,53.2,48.5,30.18,South,170,4.0,6.0,84,0.00,,,0.00,Wunderground v.1.15,2013-02-19 08:08:00,
2013-02-19 03:14:00,53.4,48.4,30.18,South,171,5.0,5.0,83,0.00,,,0.00,Wunderground v.1.15,2013-02-19 08:14:00,
2013-02-19 03:20:00,53.1,48.1,30.18,South,169,4.0,4.0,83,0.00,,,0.00,Wunderground v.1.15,2013-02-19 08:20:00,
2013-02-19 03:26:00,52.9,47.9,30.18,South,184,3.0,5.0,83,0.00,,,0.00,Wunderground v.1.15,2013-02-19 08:26:00,
2013-02-19 03:32:00,52.8,47.8,30.18,SSW,198,3.0,3.0,83,0.00,,,0.00,Wunderground v.1.15,2013-02-19 08:32:00,
2013-02-19 03:38:00,52.6,47.9,30.18,South,178,3.0,3.0,84,0.00,,,0.00,Wunderground v.1.15,2013-02-19 08:38:00,
2013-02-19 03:44:00,52.4,47.7,30.18,SSW,204,3.0,4.0,84,0.00,,,0.00,Wunderground v.1.15,2013-02-19 08:44:00,
2013-02-19 03:50:00,52.2,47.5,30.18,SSW,196,3.0,3.0,84,0.00,,,0.00,Wunderground v.1.15,2013-02-19 08:50:00,
2013-02-19 03:56:00,52.1,47.7,30.17,SSW,206,2.0,3.0,85,0.00,,,0.00,Wunderground v.1.15,2013-02-19 08:56:00,
2013-02-19 04:02:00,52.0,47.6,30.17,SSW,206,3.0,6.0,85,0.00,,,0.00,Wunderground v.1.15,2013-02-19 09:02:00,
2013-02-19 04:08:00,52.0,47.6,30.17,SSW,202,4.0,6.0,85,0.00,,,0.00,Wunderground v.1.15,2013-02-19 09:08:00,
2013-02-19 04:14:00,52.0,47.6,30.18,SSW,209,4.0,4.0,85,0.00,,,0.00,Wunderground v.1.15,2013-02-19 09:14:00,
2013-02-19 04:20:00,51.8,47.4,30.17,SSW,199,3.0,3.0,85,0.00,,,0.00,Wunderground v.1.15,2013-02-19 09:20:00,
2013-02-19 04:26:00,51.7,47.3,30.17,SW,222,2.0,3.0,85,0.00,,,0.00,Wunderground v.1.15,2013-02-19 09:26:00,
2013-02-19 04:32:00,51.6,47.2,30.17,South,190,2.0,2.0,85,0.00,,,0.00,Wunderground v.1.15,2013-02-19 09:32:00,
2013-02-19 04:38:00,51.4,47.4,30.17,SSW,210,2.0,2.0,86,0.00,,,0.00,Wunderground v.1.15,2013-02-19 09:38:00,
2013-02-19 04:44:00,51.3,46.9,30.17,South,190,1.0,2.0,85,0.00,,,0.00,Wunderground v.1.15,2013-02-19 09:44:00,
2013-02-19 04:50:00,51.6,47.2,30.17,SSW,196,3.0,6.0,85,0.00,,,0.00,Wunderground v.1.15,2013-02-19 09:50:00,
2013-02-19 04:56:00,52.0,47.3,30.17,SSW,193,5.0,6.0,84,0.00,,,0.00,Wunderground v.1.15,2013-02-19 09:56:00,
2013-02-19 05:02:00,52.1,47.4,30.17,SSW,199,4.0,5.0,84,0.00,,,0.00,Wunderground v.1.15,2013-02-19 10:02:00,
2013-02-19 05:08:00,52.2,47.5,30.17,SSW,206,4.0,7.0,84,0.00,,,0.00,Wunderground v.1.15,2013-02-19 10:08:00,
2013-02-19 05:14:00,52.4,47.4,30.17,SSW,205,5.0,6.0,83,0.00,,,0.00,Wunderground v.1.15,2013-02-19 10:14:00,
2013-02-19 05:20:00,52.5,47.5,30.17,South,173,5.0,5.0,83,0.00,,,0.00,Wunderground v.1.15,2013-02-19 10:20:00,
2013-02-19 05:26:00,52.5,47.5,30.17,SW,221,4.0,7.0,83,0.00,,,0.00,Wunderground v.1.15,2013-02-19 10:26:00,
2013-02-19 05:32:00,52.5,47.5,30.17,South,188,5.0,5.0,83,0.00,,,0.00,Wunderground v.1.15,2013-02-19 10:32:00,
2013-02-19 05:38:00,52.4,47.4,30.17,SW,220,5.0,6.0,83,0.00,,,0.00,Wunderground v.1.15,2013-02-19 10:38:00,
2013-02-19 05:44:00,52.4,47.4,30.17,SSW,195,5.0,5.0,83,0.00,,,0.00,Wunderground v.1.15,2013-02-19 10:44:00,
2013-02-19 05:50:00,52.3,47.3,30.17,SSW,211,5.0,5.0,83,0.00,,,0.00,Wunderground v.1.15,2013-02-19 10:50:00,
2013-02-19 05:56:00,52.2,47.2,30.17,South,184,5.0,5.0,83,0.00,,,0.00,Wunderground v.1.15,2013-02-19 10:56:00,
2013-02-19 06:02:00,52.2,47.2,30.17,SSW,206,5.0,7.0,83,0.00,,,0.00,Wunderground v.1.15,2013-02-19 11:02:00,
2013-02-19 06:08:00,52.1,47.1,30.17,SSW,196,4.0,7.0,83,0.00,,,0.00,Wunderground v.1.15,2013-02-19 11:08:00,
2013-02-19 06:14:00,52.0,47.0,30.17,SSW,207,3.0,5.0,83,0.00,,,0.00,Wunderground v.1.15,2013-02-19 11:14:00,
2013-02-19 06:20:00,52.1,47.1,30.17,SSW,210,3.0,4.0,83,0.00,,,0.00,Wunderground v.1.15,2013-02-19 11:20:00,
2013-02-19 06:26:00,52.1,47.1,30.17,SSW,195,4.0,5.0,83,0.00,,,0.00,Wunderground v.1.15,2013-02-19 11:26:00,
2013-02-19 06:32:00,52.2,46.9,30.17,SSW,192,4.0,5.0,82,0.00,,,0.00,Wunderground v.1.15,2013-02-19 11:32:00,
2013-02-19 06:38:00,52.2,46.9,30.17,SSW,202,4.0,5.0,82,0.00,,,0.00,Wunderground v.1.15,2013-02-19 11:38:00,
2013-02-19 06:44:00,52.1,47.1,30.17,SSW,205,4.0,5.0,83,0.00,,,0.00,Wunderground v.1.15,2013-02-19 11:44:00,
2013-02-19 06:50:00,52.0,47.0,30.17,SSW,211,4.0,5.0,83,0.00,,,0.00,Wunderground v.1.15,2013-02-19 11:50:00,
2013-02-19 06:56:00,52.1,46.8,30.17,SSW,194,4.0,5.0,82,0.00,,,0.00,Wunderground v.1.15,2013-02-19 11:56:00,
2013-02-19 07:02:00,52.2,46.9,30.17,SSW,199,4.0,7.0,82,0.00,,,0.00,Wunderground v.1.15,2013-02-19 12:02:00,
2013-02-19 07:08:00,52.3,47.0,30.17,SSW,205,4.0,7.0,82,0.00,,,0.00,Wunderground v.1.15,2013-02-19 12:08:00,
2013-02-19 07:14:00,52.6,47.3,30.17,SSW,204,4.0,6.0,82,0.00,,,0.00,Wunderground v.1.15,2013-02-19 12:14:00,
2013-02-19 07:20:00,52.9,47.2,30.17,SSW,194,5.0,5.0,81,0.00,,,0.00,Wunderground v.1.15,2013-02-19 12:20:00,
2013-02-19 07:26:00,53.3,47.6,30.17,SSW,202,5.0,6.0,81,0.00,,,0.00,Wunderground v.1.15,2013-02-19 12:26:00,
2013-02-19 07:32:00,53.7,47.7,30.17,SSW,202,5.0,6.0,80,0.00,,,0.00,Wunderground v.1.15,2013-02-19 12:32:00,
2013-02-19 07:38:00,54.0,47.6,30.17,SW,225,5.0,6.0,79,0.00,,,0.00,Wunderground v.1.15,2013-02-19 12:38:00,
2013-02-19 07:44:00,54.2,47.5,30.17,SSW,195,5.0,5.0,78,0.00,,,0.00,Wunderground v.1.15,2013-02-19 12:44:00,
2013-02-19 07:50:00,54.4,47.7,30.17,SSW,194,5.0,5.0,78,0.00,,,0.00,Wunderground v.1.15,2013-02-19 12:50:00,
2013-02-19 07:56:00,54.8,48.1,30.17,SSE,168,6.0,8.0,78,0.00,,,0.00,Wunderground v.1.15,2013-02-19 12:56:00,
2013-02-19 08:02:00,55.1,48.0,30.17,SSW,203,6.0,6.0,77,0.00,,,0.00,Wunderground v.1.15,2013-02-19 13:02:00,
2013-02-19 08:08:00,55.5,48.1,30.17,SSW,192,6.0,7.0,76,0.00,,,0.00,Wunderground v.1.15,2013-02-19 13:08:00,
2013-02-19 08:14:00,56.1,48.3,30.17,SSW,209,6.0,7.0,75,0.00,,,0.00,Wunderground v.1.15,2013-02-19 13:14:00,
2013-02-19 08:20:00,56.6,48.8,30.17,SSW,196,7.0,7.0,75,0.00,,,0.00,Wunderground v.1.15,2013-02-19 13:20:00,
2013-02-19 08:26:00,57.2,49.0,30.18,SSW,194,6.0,7.0,74,0.00,,,0.00,Wunderground v.1.15,2013-02-19 13:26:00,
2013-02-19 08:32:00,57.9,49.3,30.18,SSW,198,6.0,6.0,73,0.00,,,0.00,Wunderground v.1.15,2013-02-19 13:32:00,
2013-02-19 08:38:00,58.5,49.5,30.18,SSW,195,6.0,7.0,72,0.00,,,0.00,Wunderground v.1.15,2013-02-19 13:38:00,
2013-02-19 08:44:00,59.2,49.8,30.18,SSW,200,7.0,9.0,71,0.00,,,0.00,Wunderground v.1.15,2013-02-19 13:44:00,
2013-02-19 08:50:00,59.9,50.5,30.19,South,175,6.0,6.0,71,0.00,,,0.00,Wunderground v.1.15,2013-02-19 13:50:00,
2013-02-19 08:56:00,60.5,50.7,30.18,SSW,200,7.0,7.0,70,0.00,,,0.00,Wunderground v.1.15,2013-02-19 13:56:00,
2013-02-19 09:02:00,61.3,51.0,30.19,SW,226,6.0,11.0,69,0.00,,,0.00,Wunderground v.1.15,2013-02-19 14:02:00,
2013-02-19 09:08:00,62.0,51.7,30.19,SSW,196,6.0,11.0,69,0.00,,,0.00,Wunderground v.1.15,2013-02-19 14:08:00,
2013-02-19 09:14:00,62.5,51.8,30.19,SSW,196,7.0,13.0,68,0.00,,,0.00,Wunderground v.1.15,2013-02-19 14:14:00,
2013-02-19 09:20:00,63.2,52.5,30.19,SSW,207,8.0,8.0,68,0.00,,,0.00,Wunderground v.1.15,2013-02-19 14:20:00,
2013-02-19 09:26:00,64.1,52.9,30.18,SW,217,9.0,9.0,67,0.00,,,0.00,Wunderground v.1.15,2013-02-19 14:26:00,
2013-02-19 09:32:00,64.7,53.1,30.18,SSW,203,9.0,14.0,66,0.00,,,0.00,Wunderground v.1.15,2013-02-19 14:32:00,
2013-02-19 09:38:00,65.4,53.3,30.17,SSW,211,9.0,14.0,65,0.00,,,0.00,Wunderground v.1.15,2013-02-19 14:38:00,
2013-02-19 09:44:00,65.6,53.5,30.17,SSW,209,9.0,13.0,65,0.00,,,0.00,Wunderground v.1.15,2013-02-19 14:44:00,
2013-02-19 09:50:00,66.0,53.9,30.17,SSW,213,11.0,11.0,65,0.00,,,0.00,Wunderground v.1.15,2013-02-19 14:50:00,
2013-02-19 09:56:00,66.1,54.0,30.17,SSW,198,11.0,16.0,65,0.00,,,0.00,Wunderground v.1.15,2013-02-19 14:56:00,
2013-02-19 10:02:00,66.2,54.1,30.17,SSW,203,11.0,13.0,65,0.00,,,0.00,Wunderground v.1.15,2013-02-19 15:02:00,
2013-02-19 10:08:00,66.5,54.4,30.17,SSE,161,12.0,15.0,65,0.00,,,0.00,Wunderground v.1.15,2013-02-19 15:08:00,
2013-02-19 10:14:00,67.1,54.5,30.17,WSW,240,11.0,12.0,64,0.00,,,0.00,Wunderground v.1.15,2013-02-19 15:14:00,
2013-02-19 10:20:00,67.4,54.8,30.16,South,184,12.0,12.0,64,0.00,,,0.00,Wunderground v.1.15,2013-02-19 15:20:00,
2013-02-19 10:26:00,67.9,54.8,30.16,SSW,192,11.0,12.0,63,0.00,,,0.00,Wunderground v.1.15,2013-02-19 15:26:00,
2013-02-19 10:32:00,68.1,55.0,30.16,South,183,12.0,13.0,63,0.00,,,0.00,Wunderground v.1.15,2013-02-19 15:32:00,
2013-02-19 10:38:00,68.5,55.0,30.16,SSW,211,13.0,13.0,62,0.00,,,0.00,Wunderground v.1.15,2013-02-19 15:38:00,
2013-02-19 10:44:00,69.0,55.4,30.16,SSW,202,13.0,15.0,62,0.00,,,0.00,Wunderground v.1.15,2013-02-19 15:44:00,
2013-02-19 10:50:00,69.3,55.3,30.15,South,188,13.0,13.0,61,0.00,,,0.00,Wunderground v.1.15,2013-02-19 15:50:00,
2013-02-19 10:56:00,68.8,54.3,30.15,South,182,15.0,21.0,60,0.00,,,0.00,Wunderground v.1.15,2013-02-19 15:56:00,
2013-02-19 11:02:00,68.6,54.6,30.15,SSW,196,14.0,19.0,61,0.00,,,0.00,Wunderground v.1.15,2013-02-19 16:02:00,
2013-02-19 11:08:00,69.4,54.9,30.15,South,184,13.0,21.0,60,0.00,,,0.00,Wunderground v.1.15,2013-02-19 16:08:00,
2013-02-19 11:14:00,70.2,55.2,30.15,SSW,202,13.0,16.0,59,0.00,,,0.00,Wunderground v.1.15,2013-02-19 16:14:00,
2013-02-19 11:20:00,70.7,55.2,30.14,South,173,13.0,13.0,58,0.00,,,0.00,Wunderground v.1.15,2013-02-19 16:20:00,
2013-02-19 11:26:00,71.1,55.1,30.14,SSW,201,14.0,18.0,57,0.00,,,0.00,Wunderground v.1.15,2013-02-19 16:26:00,
2013-02-19 11:32:00,71.4,54.9,30.14,SSW,211,14.0,15.0,56,0.00,,,0.00,Wunderground v.1.15,2013-02-19 16:32:00,
2013-02-19 11:38:00,71.6,54.6,30.14,SSW,208,14.0,15.0,55,0.00,,,0.00,Wunderground v.1.15,2013-02-19 16:38:00,
2013-02-19 11:44:00,72.1,54.5,30.13,SSW,192,13.0,14.0,54,0.00,,,0.00,Wunderground v.1.15,2013-02-19 16:44:00,
2013-02-19 11:50:00,72.6,54.5,30.13,SSW,195,12.0,13.0,53,0.00,,,0.00,Wunderground v.1.15,2013-02-19 16:50:00,
2013-02-19 11:56:00,72.6,55.0,30.13,South,175,13.0,18.0,54,0.00,,,0.00,Wunderground v.1.15,2013-02-19 16:56:00,
2013-02-19 12:02:00,72.7,54.6,30.13,SSW,194,14.0,23.0,53,0.00,,,0.00,Wunderground v.1.15,2013-02-19 17:02:00,
2013-02-19 12:08:00,72.5,54.4,30.12,South,182,14.0,23.0,53,0.00,,,0.00,Wunderground v.1.15,2013-02-19 17:08:00,
2013-02-19 12:14:00,72.3,54.7,30.11,SW,230,12.0,16.0,54,0.00,,,0.00,Wunderground v.1.15,2013-02-19 17:14:00,
2013-02-19 12:20:00,73.0,53.8,30.11,South,187,12.0,14.0,51,0.00,,,0.00,Wunderground v.1.15,2013-02-19 17:20:00,
2013-02-19 12:26:00,72.9,54.2,30.11,SSW,199,12.0,16.0,52,0.00,,,0.00,Wunderground v.1.15,2013-02-19 17:26:00,
2013-02-19 12:32:00,73.1,53.4,30.11,SSW,213,11.0,13.0,50,0.00,,,0.00,Wunderground v.1.15,2013-02-19 17:32:00,
2013-02-19 12:38:00,73.2,53.4,30.11,SSW,200,11.0,14.0,50,0.00,,,0.00,Wunderground v.1.15,2013-02-19 17:38:00,
2013-02-19 12:44:00,73.5,53.2,30.10,SSW,210,12.0,13.0,49,0.00,,,0.00,Wunderground v.1.15,2013-02-19 17:44:00,
2013-02-19 12:50:00,74.0,53.1,30.09,South,184,11.0,12.0,48,0.00,,,0.00,Wunderground v.1.15,2013-02-19 17:50:00,
2013-02-19 12:56:00,74.3,53.9,30.09,SW,229,12.0,18.0,49,0.00,,,0.00,Wunderground v.1.15,2013-02-19 17:56:00,
2013-02-19 13:02:00,75.4,54.3,30.08,SSW,199,10.0,26.0,48,0.00,,,0.00,Wunderground v.1.15,2013-02-19 18:02:00,
2013-02-19 13:08:00,75.9,54.2,30.07,SW,223,10.0,26.0,47,0.00,,,0.00,Wunderground v.1.15,2013-02-19 18:08:00,
2013-02-19 13:14:00,75.6,53.4,30.07,SW,236,10.0,18.0,46,0.00,,,0.00,Wunderground v.1.15,2013-02-19 18:14:00,
2013-02-19 13:20:00,74.8,53.2,30.07,SSW,205,13.0,13.0,47,0.00,,,0.00,Wunderground v.1.15,2013-02-19 18:20:00,
2013-02-19 13:26:00,75.2,53.6,30.06,SW,218,12.0,13.0,47,0.00,,,0.00,Wunderground v.1.15,2013-02-19 18:26:00,
2013-02-19 13:32:00,75.6,53.4,30.06,South,191,10.0,10.0,46,0.00,,,0.00,Wunderground v.1.15,2013-02-19 18:32:00,
2013-02-19 13:38:00,75.5,53.3,30.06,SSE,156,10.0,13.0,46,0.00,,,0.00,Wunderground v.1.15,2013-02-19 18:38:00,
2013-02-19 13:44:00,75.7,53.4,30.05,SSW,192,11.0,14.0,46,0.00,,,0.00,Wunderground v.1.15,2013-02-19 18:44:00,
2013-02-19 13:50:00,75.9,53.6,30.05,SSW,207,10.0,11.0,46,0.00,,,0.00,Wunderground v.1.15,2013-02-19 18:50:00,
2013-02-19 13:56:00,76.1,53.8,30.05,SSE,158,11.0,11.0,46,0.00,,,0.00,Wunderground v.1.15,2013-02-19 18:56:00,
2013-02-19 14:02:00,76.6,53.7,30.04,SSW,206,11.0,23.0,45,0.00,,,0.00,Wunderground v.1.15,2013-02-19 19:02:00,
2013-02-19 14:08:00,76.4,52.9,30.04,SW,227,12.0,23.0,44,0.00,,,0.00,Wunderground v.1.15,2013-02-19 19:08:00,
2013-02-19 14:14:00,76.2,53.3,30.04,SSW,197,12.0,16.0,45,0.00,,,0.00,Wunderground v.1.15,2013-02-19 19:14:00,
2013-02-19 14:20:00,76.6,53.7,30.04,SSW,210,11.0,14.0,45,0.00,,,0.00,Wunderground v.1.15,2013-02-19 19:20:00,
2013-02-19 14:26:00,76.1,53.2,30.04,South,187,12.0,18.0,45,0.00,,,0.00,Wunderground v.1.15,2013-02-19 19:26:00,
2013-02-19 14:32:00,76.4,53.5,30.03,SW,219,12.0,19.0,45,0.00,,,0.00,Wunderground v.1.15,2013-02-19 19:32:00,
2013-02-19 14:38:00,76.8,53.2,30.03,SW,222,11.0,19.0,44,0.00,,,0.00,Wunderground v.1.15,2013-02-19 19:38:00,
2013-02-19 14:44:00,76.7,53.8,30.02,WSW,246,9.0,11.0,45,0.00,,,0.00,Wunderground v.1.15,2013-02-19 19:44:00,
2013-02-19 14:50:00,76.9,53.9,30.02,South,187,7.0,9.0,45,0.00,,,0.00,Wunderground v.1.15,2013-02-19 19:50:00,
2013-02-19 14:56:00,76.8,53.8,30.02,SSW,195,8.0,12.0,45,0.00,,,0.00,Wunderground v.1.15,2013-02-19 19:56:00,
2013-02-19 15:02:00,76.9,53.9,30.02,SSW,195,7.0,19.0,45,0.00,,,0.00,Wunderground v.1.15,2013-02-19 20:02:00,
2013-02-19 15:08:00,76.5,54.2,30.02,South,188,7.0,19.0,46,0.00,,,0.00,Wunderground v.1.15,2013-02-19 20:08:00,
2013-02-19 15:14:00,76.8,54.5,30.02,South,170,8.0,12.0,46,0.00,,,0.00,Wunderground v.1.15,2013-02-19 20:14:00,
2013-02-19 15:20:00,76.8,53.8,30.02,South,191,8.0,9.0,45,0.00,,,0.00,Wunderground v.1.15,2013-02-19 20:20:00,
2013-02-19 15:26:00,76.2,53.9,30.02,SSW,206,7.0,13.0,46,0.00,,,0.00,Wunderground v.1.15,2013-02-19 20:26:00,
2013-02-19 15:32:00,75.7,54.6,30.02,SSW,209,8.0,12.0,48,0.00,,,0.00,Wunderground v.1.15,2013-02-19 20:32:00,
2013-02-19 15:38:00,75.3,54.8,30.02,South,171,7.0,12.0,49,0.00,,,0.00,Wunderground v.1.15,2013-02-19 20:38:00,
2013-02-19 15:44:00,75.3,54.8,30.02,ESE,113,6.0,7.0,49,0.00,,,0.00,Wunderground v.1.15,2013-02-19 20:44:00,
2013-02-19 15:50:00,75.1,55.2,30.02,SSW,202,6.0,7.0,50,0.00,,,0.00,Wunderground v.1.15,2013-02-19 20:50:00,
2013-02-19 15:56:00,74.9,55.0,30.02,SSW,213,6.0,10.0,50,0.00,,,0.00,Wunderground v.1.15,2013-02-19 20:56:00,
2013-02-19 16:02:00,74.5,55.2,30.02,SSW,210,8.0,16.0,51,0.00,,,0.00,Wunderground v.1.15,2013-02-19 21:02:00,
2013-02-19 16:08:00,74.2,54.9,30.02,NW,323,8.0,16.0,51,0.00,,,0.00,Wunderground v.1.15,2013-02-19 21:08:00,
2013-02-19 16:14:00,74.1,55.3,30.02,SSE,157,6.0,8.0,52,0.00,,,0.00,Wunderground v.1.15,2013-02-19 21:14:00,
2013-02-19 16:20:00,74.0,55.3,30.02,ESE,108,6.0,7.0,52,0.00,,,0.00,Wunderground v.1.15,2013-02-19 21:20:00,
2013-02-19 16:26:00,74.1,55.3,30.01,SSW,205,7.0,8.0,52,0.00,,,0.00,Wunderground v.1.15,2013-02-19 21:26:00,
2013-02-19 16:32:00,74.2,56.0,30.01,SW,217,7.0,7.0,53,0.00,,,0.00,Wunderground v.1.15,2013-02-19 21:32:00,
2013-02-19 16:38:00,74.1,55.9,30.01,SSW,197,6.0,11.0,53,0.00,,,0.00,Wunderground v.1.15,2013-02-19 21:38:00,
2013-02-19 16:44:00,73.9,55.7,30.01,WSW,238,8.0,17.0,53,0.00,,,0.00,Wunderground v.1.15,2013-02-19 21:44:00,
2013-02-19 16:50:00,73.7,56.0,30.01,NW,316,9.0,9.0,54,0.00,,,0.00,Wunderground v.1.15,2013-02-19 21:50:00,
2013-02-19 16:56:00,73.6,56.4,30.01,SE,124,8.0,11.0,55,0.00,,,0.00,Wunderground v.1.15,2013-02-19 21:56:00,
2013-02-19 17:02:00,73.4,56.2,30.02,SW,223,8.0,13.0,55,0.00,,,0.00,Wunderground v.1.15,2013-02-19 22:02:00,
2013-02-19 17:08:00,73.2,56.1,30.02,SW,214,8.0,18.0,55,0.00,,,0.00,Wunderground v.1.15,2013-02-19 22:08:00,
2013-02-19 17:14:00,73.1,56.5,30.02,SSE,164,6.0,9.0,56,0.00,,,0.00,Wunderground v.1.15,2013-02-19 22:14:00,
2013-02-19 17:20:00,72.9,56.3,30.03,NE,44,6.0,6.0,56,0.00,,,0.00,Wunderground v.1.15,2013-02-19 22:20:00,
2013-02-19 17:26:00,72.7,56.6,30.02,SSW,211,6.0,8.0,57,0.00,,,0.00,Wunderground v.1.15,2013-02-19 22:26:00,
2013-02-19 17:32:00,72.5,56.4,30.03,WNW,285,8.0,8.0,57,0.00,,,0.00,Wunderground v.1.15,2013-02-19 22:32:00,
2013-02-19 17:38:00,72.3,56.7,30.03,NE,40,7.0,9.0,58,0.00,,,0.00,Wunderground v.1.15,2013-02-19 22:38:00,
2013-02-19 17:44:00,72.1,56.5,30.03,SW,218,9.0,18.0,58,0.00,,,0.00,Wunderground v.1.15,2013-02-19 22:44:00,
2013-02-19 17:50:00,72.0,56.9,30.03,SW,232,10.0,10.0,59,0.00,,,0.00,Wunderground v.1.15,2013-02-19 22:50:00,
2013-02-19 17:56:00,71.9,56.8,30.04,SW,223,6.0,10.0,59,0.00,,,0.00,Wunderground v.1.15,2013-02-19 22:56:00,
2013-02-19 18:02:00,71.7,57.1,30.04,SSW,194,6.0,22.0,60,0.00,,,0.00,Wunderground v.1.15,2013-02-19 23:02:00,
2013-02-19 18:08:00,71.6,57.0,30.04,ENE,68,6.0,22.0,60,0.00,,,0.00,Wunderground v.1.15,2013-02-19 23:08:00,
2013-02-19 18:14:00,71.4,57.2,30.04,SW,226,5.0,6.0,61,0.00,,,0.00,Wunderground v.1.15,2013-02-19 23:14:00,
2013-02-19 18:20:00,71.2,57.1,30.04,WSW,252,4.0,7.0,61,0.00,,,0.00,Wunderground v.1.15,2013-02-19 23:20:00,
2013-02-19 18:26:00,71.0,57.8,30.05,WSW,248,5.0,7.0,63,0.00,,,0.00,Wunderground v.1.15,2013-02-19 23:26:00,
2013-02-19 18:32:00,70.5,57.7,30.04,SW,226,5.0,6.0,64,0.00,,,0.00,Wunderground v.1.15,2013-02-19 23:32:00,
2013-02-19 18:38:00,70.2,57.9,30.05,SSW,205,5.0,11.0,65,0.00,,,0.00,Wunderground v.1.15,2013-02-19 23:38:00,
2013-02-19 18:44:00,70.1,57.8,30.04,SSW,212,6.0,9.0,65,0.00,,,0.00,Wunderground v.1.15,2013-02-19 23:44:00,
2013-02-19 18:50:00,70.0,57.7,30.04,SW,214,6.0,6.0,65,0.00,,,0.00,Wunderground v.1.15,2013-02-19 23:50:00,
2013-02-19 18:56:00,69.8,57.9,30.05,SW,219,4.0,6.0,66,0.00,,,0.00,Wunderground v.1.15,2013-02-19 23:56:00,
2013-02-19 19:02:00,69.7,57.8,30.05,SSE,161,5.0,6.0,66,0.00,,,0.00,Wunderground v.1.15,2013-02-20 00:02:00,
2013-02-19 19:08:00,69.7,58.3,30.06,SW,236,5.0,18.0,67,0.00,,,0.00,Wunderground v.1.15,2013-02-20 00:08:00,
2013-02-19 19:14:00,69.6,58.2,30.06,WNW,292,4.0,4.0,67,0.00,,,0.00,Wunderground v.1.15,2013-02-20 00:14:00,
2013-02-19 19:20:00,69.6,58.2,30.06,SW,236,3.0,5.0,67,0.00,,,0.00,Wunderground v.1.15,2013-02-20 00:20:00,
2013-02-19 19:26:00,69.5,58.1,30.06,South,183,4.0,6.0,67,0.00,,,0.00,Wunderground v.1.15,2013-02-20 00:26:00,
2013-02-19 19:32:00,69.4,58.4,30.06,WNW,301,3.0,5.0,68,0.00,,,0.00,Wunderground v.1.15,2013-02-20 00:32:00,
2013-02-19 19:38:00,69.3,58.3,30.06,West,276,3.0,5.0,68,0.00,,,0.00,Wunderground v.1.15,2013-02-20 00:38:00,
2013-02-19 19:44:00,69.1,59.3,30.07,WNW,286,6.0,15.0,71,0.00,,,0.00,Wunderground v.1.15,2013-02-20 00:44:00,
2013-02-19 19:50:00,67.5,60.8,30.08,WSW,242,10.0,10.0,79,0.00,,,0.00,Wunderground v.1.15,2013-02-20 00:50:00,
2013-02-19 19:56:00,66.0,60.7,30.08,WNW,287,10.0,11.0,83,0.00,,,0.00,Wunderground v.1.15,2013-02-20 00:56:00,
2013-02-19 20:02:00,65.2,60.6,30.08,WNW,288,7.0,14.0,85,0.00,,,0.00,Wunderground v.1.15,2013-02-20 01:02:00,
2013-02-19 20:08:00,64.9,60.6,30.08,SSW,195,6.0,14.0,86,0.00,,,0.00,Wunderground v.1.15,2013-02-20 01:08:00,
2013-02-19 20:14:00,64.8,60.8,30.09,WSW,256,7.0,12.0,87,0.00,,,0.00,Wunderground v.1.15,2013-02-20 01:14:00,
2013-02-19 20:20:00,64.6,61.0,30.09,West,278,9.0,9.0,88,0.00,,,0.00,Wunderground v.1.15,2013-02-20 01:20:00,
2013-02-19 20:26:00,64.2,60.9,30.09,WNW,287,6.0,9.0,89,0.00,,,0.00,Wunderground v.1.15,2013-02-20 01:26:00,
2013-02-19 20:32:00,63.8,60.8,30.09,West,276,5.0,7.0,90,0.00,,,0.00,Wunderground v.1.15,2013-02-20 01:32:00,
2013-02-19 20:38:00,63.6,60.9,30.09,West,276,6.0,10.0,91,0.00,,,0.01,Wunderground v.1.15,2013-02-20 01:38:00,
2013-02-19 20:44:00,63.5,60.8,30.09,WNW,290,6.0,6.0,91,0.00,,,0.01,Wunderground v.1.15,2013-02-20 01:44:00,
2013-02-19 20:50:00,63.5,60.8,30.09,WNW,297,5.0,5.0,91,0.00,,,0.01,Wunderground v.1.15,2013-02-20 01:50:00,
2013-02-19 20:56:00,63.4,60.7,30.09,WNW,291,5.0,5.0,91,0.00,,,0.01,Wunderground v.1.15,2013-02-20 01:56:00,
2013-02-19 21:02:00,63.3,60.6,30.09,WNW,298,5.0,27.0,91,0.00,,,0.01,Wunderground v.1.15,2013-02-20 02:02:00,
2013-02-19 21:08:00,63.0,60.0,30.09,SW,223,5.0,27.0,90,0.00,,,0.01,Wunderground v.1.15,2013-02-20 02:08:00,
2013-02-19 21:14:00,62.8,59.8,30.10,WNW,291,5.0,6.0,90,0.00,,,0.01,Wunderground v.1.15,2013-02-20 02:14:00,
2013-02-19 21:20:00,62.6,59.3,30.09,West,273,6.0,6.0,89,0.00,,,0.01,Wunderground v.1.15,2013-02-20 02:20:00,
2013-02-19 21:26:00,62.5,59.2,30.09,West,279,5.0,6.0,89,0.00,,,0.01,Wunderground v.1.15,2013-02-20 02:26:00,
2013-02-19 21:32:00,62.3,59.0,30.09,NNE,26,4.0,5.0,89,0.00,,,0.01,Wunderground v.1.15,2013-02-20 02:32:00,
2013-02-19 21:38:00,62.2,58.9,30.10,WNW,284,4.0,5.0,89,0.00,,,0.01,Wunderground v.1.15,2013-02-20 02:38:00,
2013-02-19 21:44:00,62.1,58.5,30.10,WNW,286,3.0,5.0,88,0.00,,,0.01,Wunderground v.1.15,2013-02-20 02:44:00,
2013-02-19 21:50:00,62.0,58.4,30.10,WSW,252,3.0,3.0,88,0.00,,,0.01,Wunderground v.1.15,2013-02-20 02:50:00,
2013-02-19 21:56:00,61.8,58.2,30.09,NW,326,3.0,3.0,88,0.00,,,0.01,Wunderground v.1.15,2013-02-20 02:56:00,
2013-02-19 22:02:00,61.6,58.0,30.09,NW,317,3.0,9.0,88,0.00,,,0.01,Wunderground v.1.15,2013-02-20 03:02:00,
2013-02-19 22:08:00,61.3,57.7,30.10,West,279,2.0,9.0,88,0.00,,,0.01,Wunderground v.1.15,2013-02-20 03:08:00,
2013-02-19 22:14:00,61.2,57.9,30.10,West,273,1.0,1.0,89,0.00,,,0.01,Wunderground v.1.15,2013-02-20 03:14:00,
2013-02-19 22:20:00,61.0,57.7,30.11,West,280,1.0,2.0,89,0.00,,,0.01,Wunderground v.1.15,2013-02-20 03:20:00,
2013-02-19 22:26:00,60.9,57.6,30.11,West,277,1.0,2.0,89,0.00,,,0.01,Wunderground v.1.15,2013-02-20 03:26:00,
2013-02-19 22:32:00,60.7,57.4,30.11,West,275,1.0,1.0,89,0.00,,,0.01,Wunderground v.1.15,2013-02-20 03:32:00,
2013-02-19 22:38:00,60.5,57.2,30.11,WNW,283,0.0,1.0,89,0.00,,,0.01,Wunderground v.1.15,2013-02-20 03:38:00,
2013-02-19 22:44:00,60.3,57.4,30.11,WNW,293,0.0,1.0,90,0.00,,,0.01,Wunderground v.1.15,2013-02-20 03:44:00,
2013-02-19 22:50:00,60.2,57.3,30.11,NW,304,1.0,1.0,90,0.00,,,0.01,Wunderground v.1.15,2013-02-20 03:50:00,
2013-02-19 22:56:00,60.0,57.1,30.11,WNW,298,1.0,2.0,90,0.00,,,0.01,Wunderground v.1.15,2013-02-20 03:56:00,
2013-02-19 23:02:00,60.0,57.4,30.11,NW,308,1.0,5.0,91,0.00,,,0.01,Wunderground v.1.15,2013-02-20 04:02:00,
2013-02-19 23:08:00,60.0,57.4,30.11,West,279,1.0,5.0,91,0.00,,,0.01,Wunderground v.1.15,2013-02-20 04:08:00,
2013-02-19 23:14:00,60.0,57.4,30.11,West,271,0.0,1.0,91,0.00,,,0.01,Wunderground v.1.15,2013-02-20 04:14:00,
2013-02-19 23:20:00,59.8,57.2,30.11,WNW,292,1.0,1.0,91,0.00,,,0.01,Wunderground v.1.15,2013-02-20 04:20:00,
2013-02-19 23:26:00,59.6,57.0,30.11,NNW,333,2.0,4.0,91,0.00,,,0.01,Wunderground v.1.15,2013-02-20 04:26:00,
2013-02-19 23:32:00,59.5,56.6,30.11,NW,311,3.0,3.0,90,0.00,,,0.01,Wunderground v.1.15,2013-02-20 04:32:00,
2013-02-19 23:38:00,59.3,56.4,30.12,WNW,288,2.0,4.0,90,0.00,,,0.01,Wunderground v.1.15,2013-02-20 04:38:00,
2013-02-19 23:44:00,59.1,56.5,30.12,WNW,302,2.0,3.0,91,0.00,,,0.01,Wunderground v.1.15,2013-02-20 04:44:00,
2013-02-19 23:50:00,59.0,56.4,30.12,West,280,2.0,2.0,91,0.00,,,0.01,Wunderground v.1.15,2013-02-20 04:50:00,
2013-02-19 23:56:00,58.9,56.3,30.12,WNW,287,2.0,2.0,91,0.00,,,0.01,Wunderground v.1.15,2013-02-20 04:56:00,